sensor_id;sensor_type;location;lat;lon;timestamp;P1;durP1;ratioP1;P2;durP2;ratioP2
14030;SDS011;7090;49.436;8.490;2024-01-30T00:01:37;10.73;;;9.73;;
14030;SDS011;7090;49.436;8.490;2024-01-30T00:04:02;10.90;;;10.17;;
14030;SDS011;7090;49.436;8.490;2024-01-30T00:06:28;11.27;;;10.63;;
14030;SDS011;7090;49.436;8.490;2024-01-30T00:08:53;15.53;;;14.10;;
14030;SDS011;7090;49.436;8.490;2024-01-30T00:11:19;15.93;;;14.23;;
14030;SDS011;7090;49.436;8.490;2024-01-30T00:13:46;15.03;;;13.53;;
14030;SDS011;7090;49.436;8.490;2024-01-30T00:16:23;12.73;;;11.60;;
14030;SDS011;7090;49.436;8.490;2024-01-30T00:18:53;16.13;;;14.50;;
14030;SDS011;7090;49.436;8.490;2024-01-30T00:21:19;20.60;;;17.07;;
14030;SDS011;7090;49.436;8.490;2024-01-30T00:23:45;10.63;;;10.03;;
14030;SDS011;7090;49.436;8.490;2024-01-30T00:26:11;12.27;;;11.47;;
14030;SDS011;7090;49.436;8.490;2024-01-30T00:28:37;11.80;;;11.20;;
14030;SDS011;7090;49.436;8.490;2024-01-30T00:31:03;8.47;;;8.17;;
14030;SDS011;7090;49.436;8.490;2024-01-30T00:33:29;11.93;;;11.03;;
14030;SDS011;7090;49.436;8.490;2024-01-30T00:35:55;9.73;;;9.33;;
14030;SDS011;7090;49.436;8.490;2024-01-30T00:38:21;8.73;;;8.43;;
14030;SDS011;7090;49.436;8.490;2024-01-30T00:40:47;10.30;;;9.80;;
14030;SDS011;7090;49.436;8.490;2024-01-30T00:43:12;9.43;;;9.03;;
14030;SDS011;7090;49.436;8.490;2024-01-30T00:45:38;9.00;;;8.70;;
14030;SDS011;7090;49.436;8.490;2024-01-30T00:48:03;12.73;;;12.03;;
14030;SDS011;7090;49.436;8.490;2024-01-30T00:50:29;10.30;;;9.80;;
14030;SDS011;7090;49.436;8.490;2024-01-30T00:52:55;10.67;;;10.27;;
14030;SDS011;7090;49.436;8.490;2024-01-30T00:55:20;13.83;;;12.23;;
14030;SDS011;7090;49.436;8.490;2024-01-30T00:57:46;10.97;;;10.33;;
14030;SDS011;7090;49.436;8.490;2024-01-30T01:00:12;10.80;;;10.40;;
14030;SDS011;7090;49.436;8.490;2024-01-30T01:02:41;11.37;;;10.77;;
14030;SDS011;7090;49.436;8.490;2024-01-30T01:05:07;12.70;;;11.77;;
14030;SDS011;7090;49.436;8.490;2024-01-30T01:07:33;10.50;;;10.00;;
14030;SDS011;7090;49.436;8.490;2024-01-30T01:09:59;12.20;;;11.63;;
14030;SDS011;7090;49.436;8.490;2024-01-30T01:12:24;10.00;;;9.60;;
14030;SDS011;7090;49.436;8.490;2024-01-30T01:14:50;11.10;;;10.50;;
14030;SDS011;7090;49.436;8.490;2024-01-30T01:17:15;11.90;;;11.20;;
14030;SDS011;7090;49.436;8.490;2024-01-30T01:19:41;13.70;;;12.60;;
14030;SDS011;7090;49.436;8.490;2024-01-30T01:22:06;10.90;;;10.40;;
14030;SDS011;7090;49.436;8.490;2024-01-30T01:24:33;9.17;;;8.87;;
14030;SDS011;7090;49.436;8.490;2024-01-30T01:26:59;9.93;;;9.53;;
14030;SDS011;7090;49.436;8.490;2024-01-30T01:29:24;9.57;;;9.17;;
14030;SDS011;7090;49.436;8.490;2024-01-30T01:31:56;10.33;;;9.93;;
14030;SDS011;7090;49.436;8.490;2024-01-30T01:34:22;10.23;;;9.73;;
14030;SDS011;7090;49.436;8.490;2024-01-30T01:36:51;11.57;;;10.63;;
14030;SDS011;7090;49.436;8.490;2024-01-30T01:39:20;9.63;;;9.23;;
14030;SDS011;7090;49.436;8.490;2024-01-30T01:41:46;9.90;;;9.50;;
14030;SDS011;7090;49.436;8.490;2024-01-30T01:44:12;10.37;;;9.87;;
14030;SDS011;7090;49.436;8.490;2024-01-30T01:46:38;10.87;;;10.37;;
14030;SDS011;7090;49.436;8.490;2024-01-30T01:49:07;11.80;;;11.13;;
14030;SDS011;7090;49.436;8.490;2024-01-30T01:51:33;12.30;;;11.60;;
14030;SDS011;7090;49.436;8.490;2024-01-30T01:54:02;10.40;;;10.00;;
14030;SDS011;7090;49.436;8.490;2024-01-30T01:56:31;9.33;;;8.93;;
14030;SDS011;7090;49.436;8.490;2024-01-30T01:59:04;10.53;;;10.03;;
14030;SDS011;7090;49.436;8.490;2024-01-30T02:01:33;10.53;;;10.13;;
14030;SDS011;7090;49.436;8.490;2024-01-30T02:03:59;9.03;;;8.73;;
14030;SDS011;7090;49.436;8.490;2024-01-30T02:06:26;9.73;;;9.33;;
14030;SDS011;7090;49.436;8.490;2024-01-30T02:08:52;9.30;;;8.90;;
14030;SDS011;7090;49.436;8.490;2024-01-30T02:11:18;9.47;;;9.03;;
14030;SDS011;7090;49.436;8.490;2024-01-30T02:13:45;10.67;;;10.17;;
14030;SDS011;7090;49.436;8.490;2024-01-30T02:16:11;8.90;;;8.60;;
14030;SDS011;7090;49.436;8.490;2024-01-30T02:18:36;9.07;;;8.73;;
14030;SDS011;7090;49.436;8.490;2024-01-30T02:21:07;9.60;;;9.20;;
14030;SDS011;7090;49.436;8.490;2024-01-30T02:23:32;9.87;;;9.47;;
14030;SDS011;7090;49.436;8.490;2024-01-30T02:25:59;11.03;;;10.20;;
14030;SDS011;7090;49.436;8.490;2024-01-30T02:28:25;9.50;;;9.10;;
14030;SDS011;7090;49.436;8.490;2024-01-30T02:30:52;9.53;;;9.13;;
14030;SDS011;7090;49.436;8.490;2024-01-30T02:33:17;10.10;;;9.70;;
14030;SDS011;7090;49.436;8.490;2024-01-30T02:35:43;10.50;;;10.10;;
14030;SDS011;7090;49.436;8.490;2024-01-30T02:38:09;9.90;;;9.50;;
14030;SDS011;7090;49.436;8.490;2024-01-30T02:40:34;10.00;;;9.60;;
14030;SDS011;7090;49.436;8.490;2024-01-30T02:43:01;10.33;;;9.93;;
14030;SDS011;7090;49.436;8.490;2024-01-30T02:45:27;10.20;;;9.80;;
14030;SDS011;7090;49.436;8.490;2024-01-30T02:47:53;10.40;;;10.00;;
14030;SDS011;7090;49.436;8.490;2024-01-30T02:50:18;10.30;;;9.90;;
14030;SDS011;7090;49.436;8.490;2024-01-30T02:52:44;10.93;;;10.53;;
14030;SDS011;7090;49.436;8.490;2024-01-30T02:55:10;10.43;;;10.03;;
14030;SDS011;7090;49.436;8.490;2024-01-30T02:57:35;11.23;;;10.73;;
14030;SDS011;7090;49.436;8.490;2024-01-30T03:00:01;10.73;;;10.33;;
14030;SDS011;7090;49.436;8.490;2024-01-30T03:02:29;13.03;;;12.33;;
14030;SDS011;7090;49.436;8.490;2024-01-30T03:04:54;10.50;;;10.10;;
14030;SDS011;7090;49.436;8.490;2024-01-30T03:07:20;10.73;;;10.33;;
14030;SDS011;7090;49.436;8.490;2024-01-30T03:09:45;10.70;;;10.30;;
14030;SDS011;7090;49.436;8.490;2024-01-30T03:12:11;10.50;;;10.10;;
14030;SDS011;7090;49.436;8.490;2024-01-30T03:14:37;10.60;;;10.20;;
14030;SDS011;7090;49.436;8.490;2024-01-30T03:17:02;10.10;;;9.70;;
14030;SDS011;7090;49.436;8.490;2024-01-30T03:19:28;11.60;;;11.10;;
14030;SDS011;7090;49.436;8.490;2024-01-30T03:21:53;12.17;;;11.60;;
14030;SDS011;7090;49.436;8.490;2024-01-30T03:24:19;11.43;;;10.93;;
14030;SDS011;7090;49.436;8.490;2024-01-30T03:26:45;12.33;;;11.60;;
14030;SDS011;7090;49.436;8.490;2024-01-30T03:29:11;10.60;;;10.20;;
14030;SDS011;7090;49.436;8.490;2024-01-30T03:31:36;10.93;;;10.43;;
14030;SDS011;7090;49.436;8.490;2024-01-30T03:34:02;10.40;;;10.00;;
14030;SDS011;7090;49.436;8.490;2024-01-30T03:36:27;11.37;;;10.67;;
14030;SDS011;7090;49.436;8.490;2024-01-30T03:38:53;11.30;;;10.70;;
14030;SDS011;7090;49.436;8.490;2024-01-30T03:41:19;11.43;;;10.93;;
14030;SDS011;7090;49.436;8.490;2024-01-30T03:43:45;10.07;;;9.67;;
14030;SDS011;7090;49.436;8.490;2024-01-30T03:46:11;11.17;;;10.67;;
14030;SDS011;7090;49.436;8.490;2024-01-30T03:48:37;12.40;;;11.70;;
14030;SDS011;7090;49.436;8.490;2024-01-30T03:51:04;11.67;;;11.00;;
14030;SDS011;7090;49.436;8.490;2024-01-30T03:53:30;11.30;;;10.60;;
14030;SDS011;7090;49.436;8.490;2024-01-30T03:55:55;10.77;;;10.30;;
14030;SDS011;7090;49.436;8.490;2024-01-30T03:58:21;12.13;;;11.43;;
14030;SDS011;7090;49.436;8.490;2024-01-30T04:00:46;12.17;;;11.57;;
14030;SDS011;7090;49.436;8.490;2024-01-30T04:03:12;10.63;;;10.13;;
14030;SDS011;7090;49.436;8.490;2024-01-30T04:05:39;14.37;;;13.03;;
14030;SDS011;7090;49.436;8.490;2024-01-30T04:08:05;9.90;;;9.40;;
14030;SDS011;7090;49.436;8.490;2024-01-30T04:10:31;11.30;;;10.70;;
14030;SDS011;7090;49.436;8.490;2024-01-30T04:12:56;11.30;;;10.40;;
14030;SDS011;7090;49.436;8.490;2024-01-30T04:15:22;9.73;;;9.33;;
14030;SDS011;7090;49.436;8.490;2024-01-30T04:17:47;10.27;;;9.77;;
14030;SDS011;7090;49.436;8.490;2024-01-30T04:20:13;10.33;;;9.83;;
14030;SDS011;7090;49.436;8.490;2024-01-30T04:22:41;10.60;;;10.20;;
14030;SDS011;7090;49.436;8.490;2024-01-30T04:25:08;10.20;;;9.80;;
14030;SDS011;7090;49.436;8.490;2024-01-30T04:27:33;9.70;;;9.30;;
14030;SDS011;7090;49.436;8.490;2024-01-30T04:29:59;10.03;;;9.63;;
14030;SDS011;7090;49.436;8.490;2024-01-30T04:32:25;9.90;;;9.50;;
14030;SDS011;7090;49.436;8.490;2024-01-30T04:34:50;9.80;;;9.40;;
14030;SDS011;7090;49.436;8.490;2024-01-30T04:37:16;9.73;;;9.33;;
14030;SDS011;7090;49.436;8.490;2024-01-30T04:39:41;9.73;;;9.33;;
14030;SDS011;7090;49.436;8.490;2024-01-30T04:42:07;9.90;;;9.50;;
14030;SDS011;7090;49.436;8.490;2024-01-30T04:44:32;9.47;;;9.07;;
14030;SDS011;7090;49.436;8.490;2024-01-30T04:46:58;10.43;;;10.03;;
14030;SDS011;7090;49.436;8.490;2024-01-30T04:49:26;9.60;;;9.20;;
14030;SDS011;7090;49.436;8.490;2024-01-30T04:51:52;10.13;;;9.73;;
14030;SDS011;7090;49.436;8.490;2024-01-30T04:54:18;10.57;;;10.17;;
14030;SDS011;7090;49.436;8.490;2024-01-30T04:56:43;10.30;;;9.90;;
14030;SDS011;7090;49.436;8.490;2024-01-30T04:59:09;9.80;;;9.40;;
14030;SDS011;7090;49.436;8.490;2024-01-30T05:01:34;13.47;;;12.67;;
14030;SDS011;7090;49.436;8.490;2024-01-30T05:04:00;10.87;;;10.47;;
14030;SDS011;7090;49.436;8.490;2024-01-30T05:06:26;12.83;;;12.10;;
14030;SDS011;7090;49.436;8.490;2024-01-30T05:08:52;12.03;;;11.53;;
14030;SDS011;7090;49.436;8.490;2024-01-30T05:11:18;10.77;;;10.37;;
14030;SDS011;7090;49.436;8.490;2024-01-30T05:13:44;13.17;;;12.47;;
14030;SDS011;7090;49.436;8.490;2024-01-30T05:16:09;14.53;;;13.43;;
14030;SDS011;7090;49.436;8.490;2024-01-30T05:18:35;14.23;;;13.33;;
14030;SDS011;7090;49.436;8.490;2024-01-30T05:21:01;12.87;;;12.17;;
14030;SDS011;7090;49.436;8.490;2024-01-30T05:23:27;14.70;;;13.53;;
14030;SDS011;7090;49.436;8.490;2024-01-30T05:25:53;11.23;;;10.73;;
14030;SDS011;7090;49.436;8.490;2024-01-30T05:28:18;11.93;;;11.33;;
14030;SDS011;7090;49.436;8.490;2024-01-30T05:30:44;13.47;;;12.77;;
14030;SDS011;7090;49.436;8.490;2024-01-30T05:33:09;11.77;;;11.17;;
14030;SDS011;7090;49.436;8.490;2024-01-30T05:35:37;15.17;;;14.07;;
14030;SDS011;7090;49.436;8.490;2024-01-30T05:38:03;12.17;;;11.57;;
14030;SDS011;7090;49.436;8.490;2024-01-30T05:40:29;13.90;;;13.10;;
14030;SDS011;7090;49.436;8.490;2024-01-30T05:42:55;12.87;;;12.23;;
14030;SDS011;7090;49.436;8.490;2024-01-30T05:45:21;13.17;;;12.30;;
14030;SDS011;7090;49.436;8.490;2024-01-30T05:47:48;12.07;;;11.57;;
14030;SDS011;7090;49.436;8.490;2024-01-30T05:50:13;11.00;;;10.50;;
14030;SDS011;7090;49.436;8.490;2024-01-30T05:52:39;11.47;;;10.97;;
14030;SDS011;7090;49.436;8.490;2024-01-30T05:55:05;12.00;;;11.40;;
14030;SDS011;7090;49.436;8.490;2024-01-30T05:57:31;12.87;;;12.17;;
14030;SDS011;7090;49.436;8.490;2024-01-30T05:59:56;12.33;;;11.63;;
14030;SDS011;7090;49.436;8.490;2024-01-30T06:02:22;15.83;;;14.83;;
14030;SDS011;7090;49.436;8.490;2024-01-30T06:04:48;11.20;;;10.70;;
14030;SDS011;7090;49.436;8.490;2024-01-30T06:07:13;12.83;;;12.23;;
14030;SDS011;7090;49.436;8.490;2024-01-30T06:09:39;11.03;;;10.53;;
14030;SDS011;7090;49.436;8.490;2024-01-30T06:12:05;11.53;;;11.03;;
14030;SDS011;7090;49.436;8.490;2024-01-30T06:14:31;12.43;;;11.63;;
14030;SDS011;7090;49.436;8.490;2024-01-30T06:16:58;15.67;;;14.53;;
14030;SDS011;7090;49.436;8.490;2024-01-30T06:19:24;15.27;;;14.20;;
14030;SDS011;7090;49.436;8.490;2024-01-30T06:21:50;15.37;;;14.00;;
14030;SDS011;7090;49.436;8.490;2024-01-30T06:24:15;14.03;;;12.80;;
14030;SDS011;7090;49.436;8.490;2024-01-30T06:26:41;12.93;;;12.23;;
14030;SDS011;7090;49.436;8.490;2024-01-30T06:29:07;13.67;;;12.67;;
14030;SDS011;7090;49.436;8.490;2024-01-30T06:31:32;15.07;;;14.10;;
14030;SDS011;7090;49.436;8.490;2024-01-30T06:33:58;13.23;;;12.53;;
14030;SDS011;7090;49.436;8.490;2024-01-30T06:36:24;13.80;;;12.80;;
14030;SDS011;7090;49.436;8.490;2024-01-30T06:38:49;14.60;;;13.50;;
14030;SDS011;7090;49.436;8.490;2024-01-30T06:41:15;15.73;;;14.33;;
14030;SDS011;7090;49.436;8.490;2024-01-30T06:43:40;29.73;;;14.83;;
14030;SDS011;7090;49.436;8.490;2024-01-30T06:46:06;13.93;;;13.13;;
14030;SDS011;7090;49.436;8.490;2024-01-30T06:48:32;12.93;;;12.33;;
14030;SDS011;7090;49.436;8.490;2024-01-30T06:50:57;14.80;;;13.67;;
14030;SDS011;7090;49.436;8.490;2024-01-30T06:53:23;15.00;;;13.70;;
14030;SDS011;7090;49.436;8.490;2024-01-30T06:55:51;14.47;;;13.57;;
14030;SDS011;7090;49.436;8.490;2024-01-30T06:58:17;14.40;;;13.23;;
14030;SDS011;7090;49.436;8.490;2024-01-30T07:00:42;12.13;;;11.47;;
14030;SDS011;7090;49.436;8.490;2024-01-30T07:03:08;14.93;;;13.93;;
14030;SDS011;7090;49.436;8.490;2024-01-30T07:05:34;13.37;;;12.47;;
14030;SDS011;7090;49.436;8.490;2024-01-30T07:07:59;14.43;;;13.50;;
14030;SDS011;7090;49.436;8.490;2024-01-30T07:10:25;12.90;;;12.20;;
14030;SDS011;7090;49.436;8.490;2024-01-30T07:12:51;15.70;;;13.20;;
14030;SDS011;7090;49.436;8.490;2024-01-30T07:15:16;13.27;;;12.30;;
14030;SDS011;7090;49.436;8.490;2024-01-30T07:17:44;12.73;;;11.93;;
14030;SDS011;7090;49.436;8.490;2024-01-30T07:20:10;16.50;;;15.07;;
14030;SDS011;7090;49.436;8.490;2024-01-30T07:22:36;13.63;;;12.60;;
14030;SDS011;7090;49.436;8.490;2024-01-30T07:25:02;10.13;;;9.70;;
14030;SDS011;7090;49.436;8.490;2024-01-30T07:27:28;17.30;;;14.33;;
14030;SDS011;7090;49.436;8.490;2024-01-30T07:29:53;14.53;;;13.37;;
14030;SDS011;7090;49.436;8.490;2024-01-30T07:32:19;17.57;;;15.93;;
14030;SDS011;7090;49.436;8.490;2024-01-30T07:34:44;15.47;;;14.13;;
14030;SDS011;7090;49.436;8.490;2024-01-30T07:37:10;13.47;;;12.63;;
14030;SDS011;7090;49.436;8.490;2024-01-30T07:39:38;15.33;;;13.93;;
14030;SDS011;7090;49.436;8.490;2024-01-30T07:42:03;15.87;;;14.47;;
14030;SDS011;7090;49.436;8.490;2024-01-30T07:44:29;14.20;;;13.30;;
14030;SDS011;7090;49.436;8.490;2024-01-30T07:46:55;15.87;;;14.63;;
14030;SDS011;7090;49.436;8.490;2024-01-30T07:49:20;18.30;;;16.63;;
14030;SDS011;7090;49.436;8.490;2024-01-30T07:51:46;15.50;;;14.07;;
14030;SDS011;7090;49.436;8.490;2024-01-30T07:54:12;14.27;;;13.17;;
14030;SDS011;7090;49.436;8.490;2024-01-30T07:56:37;14.37;;;13.27;;
14030;SDS011;7090;49.436;8.490;2024-01-30T07:59:03;16.17;;;14.07;;
14030;SDS011;7090;49.436;8.490;2024-01-30T08:01:29;15.77;;;14.30;;
14030;SDS011;7090;49.436;8.490;2024-01-30T08:03:54;14.43;;;13.50;;
14030;SDS011;7090;49.436;8.490;2024-01-30T08:06:20;13.13;;;12.03;;
14030;SDS011;7090;49.436;8.490;2024-01-30T08:08:45;16.63;;;13.53;;
14030;SDS011;7090;49.436;8.490;2024-01-30T08:11:11;13.73;;;12.50;;
14030;SDS011;7090;49.436;8.490;2024-01-30T08:13:38;11.83;;;10.97;;
14030;SDS011;7090;49.436;8.490;2024-01-30T08:16:04;10.17;;;9.63;;
14030;SDS011;7090;49.436;8.490;2024-01-30T08:18:30;11.27;;;10.57;;
14030;SDS011;7090;49.436;8.490;2024-01-30T08:20:56;13.70;;;12.63;;
14030;SDS011;7090;49.436;8.490;2024-01-30T08:23:22;16.60;;;14.07;;
14030;SDS011;7090;49.436;8.490;2024-01-30T08:25:47;14.80;;;13.17;;
14030;SDS011;7090;49.436;8.490;2024-01-30T08:28:13;14.10;;;12.93;;
14030;SDS011;7090;49.436;8.490;2024-01-30T08:30:39;14.47;;;13.07;;
14030;SDS011;7090;49.436;8.490;2024-01-30T08:33:04;11.40;;;10.80;;
14030;SDS011;7090;49.436;8.490;2024-01-30T08:35:30;14.13;;;13.00;;
14030;SDS011;7090;49.436;8.490;2024-01-30T08:37:58;11.93;;;11.07;;
14030;SDS011;7090;49.436;8.490;2024-01-30T08:40:24;12.93;;;11.83;;
14030;SDS011;7090;49.436;8.490;2024-01-30T08:42:50;11.73;;;10.93;;
14030;SDS011;7090;49.436;8.490;2024-01-30T08:45:15;11.53;;;10.70;;
14030;SDS011;7090;49.436;8.490;2024-01-30T08:47:41;11.67;;;10.97;;
14030;SDS011;7090;49.436;8.490;2024-01-30T08:50:06;13.20;;;12.10;;
14030;SDS011;7090;49.436;8.490;2024-01-30T08:52:32;12.23;;;11.30;;
14030;SDS011;7090;49.436;8.490;2024-01-30T08:54:59;12.20;;;11.40;;
14030;SDS011;7090;49.436;8.490;2024-01-30T08:57:25;12.70;;;11.70;;
14030;SDS011;7090;49.436;8.490;2024-01-30T08:59:53;11.33;;;10.60;;
14030;SDS011;7090;49.436;8.490;2024-01-30T09:02:20;10.73;;;10.00;;
14030;SDS011;7090;49.436;8.490;2024-01-30T09:04:45;9.80;;;8.87;;
14030;SDS011;7090;49.436;8.490;2024-01-30T09:07:11;12.00;;;11.00;;
14030;SDS011;7090;49.436;8.490;2024-01-30T09:09:38;9.93;;;9.43;;
14030;SDS011;7090;49.436;8.490;2024-01-30T09:12:06;11.63;;;10.67;;
14030;SDS011;7090;49.436;8.490;2024-01-30T09:14:34;12.17;;;11.33;;
14030;SDS011;7090;49.436;8.490;2024-01-30T09:17:03;11.83;;;11.13;;
14030;SDS011;7090;49.436;8.490;2024-01-30T09:19:29;10.17;;;9.67;;
14030;SDS011;7090;49.436;8.490;2024-01-30T09:21:55;12.57;;;11.60;;
14030;SDS011;7090;49.436;8.490;2024-01-30T09:24:21;12.67;;;11.37;;
14030;SDS011;7090;49.436;8.490;2024-01-30T09:26:46;11.37;;;10.57;;
14030;SDS011;7090;49.436;8.490;2024-01-30T09:29:12;12.67;;;11.57;;
14030;SDS011;7090;49.436;8.490;2024-01-30T09:31:38;10.20;;;9.60;;
14030;SDS011;7090;49.436;8.490;2024-01-30T09:34:03;11.57;;;10.67;;
14030;SDS011;7090;49.436;8.490;2024-01-30T09:36:29;11.53;;;10.83;;
14030;SDS011;7090;49.436;8.490;2024-01-30T09:38:54;16.80;;;15.03;;
14030;SDS011;7090;49.436;8.490;2024-01-30T09:41:20;12.67;;;11.33;;
14030;SDS011;7090;49.436;8.490;2024-01-30T09:43:50;9.63;;;9.17;;
14030;SDS011;7090;49.436;8.490;2024-01-30T09:46:16;18.37;;;15.33;;
14030;SDS011;7090;49.436;8.490;2024-01-30T09:48:48;9.80;;;9.30;;
14030;SDS011;7090;49.436;8.490;2024-01-30T09:51:14;12.73;;;11.73;;
14030;SDS011;7090;49.436;8.490;2024-01-30T09:53:42;13.47;;;12.07;;
14030;SDS011;7090;49.436;8.490;2024-01-30T09:56:08;12.88;;;11.70;;
14030;SDS011;7090;49.436;8.490;2024-01-30T09:58:34;8.47;;;8.07;;
14030;SDS011;7090;49.436;8.490;2024-01-30T10:01:00;12.37;;;11.43;;
14030;SDS011;7090;49.436;8.490;2024-01-30T10:03:25;13.93;;;12.80;;
14030;SDS011;7090;49.436;8.490;2024-01-30T10:05:52;10.07;;;9.47;;
14030;SDS011;7090;49.436;8.490;2024-01-30T10:08:18;12.97;;;11.90;;
14030;SDS011;7090;49.436;8.490;2024-01-30T10:10:47;14.80;;;12.87;;
14030;SDS011;7090;49.436;8.490;2024-01-30T10:13:14;10.97;;;10.10;;
14030;SDS011;7090;49.436;8.490;2024-01-30T10:15:41;7.77;;;7.47;;
14030;SDS011;7090;49.436;8.490;2024-01-30T10:18:08;12.67;;;11.60;;
14030;SDS011;7090;49.436;8.490;2024-01-30T10:20:35;14.37;;;12.93;;
14030;SDS011;7090;49.436;8.490;2024-01-30T10:23:01;12.50;;;11.37;;
14030;SDS011;7090;49.436;8.490;2024-01-30T10:25:26;14.77;;;13.33;;
14030;SDS011;7090;49.436;8.490;2024-01-30T10:27:55;11.80;;;10.87;;
14030;SDS011;7090;49.436;8.490;2024-01-30T10:30:21;10.03;;;9.47;;
14030;SDS011;7090;49.436;8.490;2024-01-30T10:32:47;11.60;;;10.70;;
14030;SDS011;7090;49.436;8.490;2024-01-30T10:35:13;11.63;;;10.63;;
14030;SDS011;7090;49.436;8.490;2024-01-30T10:37:41;7.40;;;7.10;;
14030;SDS011;7090;49.436;8.490;2024-01-30T10:40:08;11.47;;;10.40;;
14030;SDS011;7090;49.436;8.490;2024-01-30T10:42:37;12.05;;;10.98;;
14030;SDS011;7090;49.436;8.490;2024-01-30T10:45:10;8.15;;;7.65;;
14030;SDS011;7090;49.436;8.490;2024-01-30T10:47:50;11.33;;;10.27;;
14030;SDS011;7090;49.436;8.490;2024-01-30T10:50:24;11.70;;;10.60;;
14030;SDS011;7090;49.436;8.490;2024-01-30T10:52:50;11.60;;;10.50;;
14030;SDS011;7090;49.436;8.490;2024-01-30T10:55:16;9.70;;;8.93;;
14030;SDS011;7090;49.436;8.490;2024-01-30T10:57:42;12.50;;;11.30;;
14030;SDS011;7090;49.436;8.490;2024-01-30T11:00:09;12.23;;;10.60;;
14030;SDS011;7090;49.436;8.490;2024-01-30T11:02:38;10.02;;;9.20;;
14030;SDS011;7090;49.436;8.490;2024-01-30T11:05:06;11.50;;;10.33;;
14030;SDS011;7090;49.436;8.490;2024-01-30T11:07:33;12.93;;;11.63;;
14030;SDS011;7090;49.436;8.490;2024-01-30T11:12:29;9.67;;;8.97;;
14030;SDS011;7090;49.436;8.490;2024-01-30T11:15:01;10.87;;;9.87;;
14030;SDS011;7090;49.436;8.490;2024-01-30T11:20:30;7.33;;;6.87;;
14030;SDS011;7090;49.436;8.490;2024-01-30T11:22:57;9.00;;;8.40;;
14030;SDS011;7090;49.436;8.490;2024-01-30T11:25:23;11.90;;;10.73;;
14030;SDS011;7090;49.436;8.490;2024-01-30T11:27:50;8.37;;;7.73;;
14030;SDS011;7090;49.436;8.490;2024-01-30T11:30:22;10.27;;;9.33;;
14030;SDS011;7090;49.436;8.490;2024-01-30T11:33:04;9.87;;;9.03;;
14030;SDS011;7090;49.436;8.490;2024-01-30T11:35:36;9.13;;;8.33;;
14030;SDS011;7090;49.436;8.490;2024-01-30T11:38:04;12.93;;;9.93;;
14030;SDS011;7090;49.436;8.490;2024-01-30T11:40:31;10.40;;;9.45;;
14030;SDS011;7090;49.436;8.490;2024-01-30T11:42:59;13.27;;;10.90;;
14030;SDS011;7090;49.436;8.490;2024-01-30T11:45:26;7.20;;;6.90;;
14030;SDS011;7090;49.436;8.490;2024-01-30T11:47:52;9.67;;;9.00;;
14030;SDS011;7090;49.436;8.490;2024-01-30T11:50:18;10.20;;;9.20;;
14030;SDS011;7090;49.436;8.490;2024-01-30T11:52:44;12.43;;;9.97;;
14030;SDS011;7090;49.436;8.490;2024-01-30T11:55:09;11.70;;;10.63;;
14030;SDS011;7090;49.436;8.490;2024-01-30T11:57:36;8.50;;;7.93;;
14030;SDS011;7090;49.436;8.490;2024-01-30T12:00:05;9.30;;;8.50;;
14030;SDS011;7090;49.436;8.490;2024-01-30T12:02:35;9.47;;;8.77;;
14030;SDS011;7090;49.436;8.490;2024-01-30T12:05:04;9.13;;;8.40;;
14030;SDS011;7090;49.436;8.490;2024-01-30T12:07:31;10.00;;;9.10;;
14030;SDS011;7090;49.436;8.490;2024-01-30T12:09:57;6.77;;;6.37;;
14030;SDS011;7090;49.436;8.490;2024-01-30T12:12:23;9.80;;;9.00;;
14030;SDS011;7090;49.436;8.490;2024-01-30T12:14:50;12.13;;;10.93;;
14030;SDS011;7090;49.436;8.490;2024-01-30T12:17:27;10.20;;;9.30;;
14030;SDS011;7090;49.436;8.490;2024-01-30T12:20:03;10.70;;;9.85;;
14030;SDS011;7090;49.436;8.490;2024-01-30T12:22:37;10.37;;;9.47;;
14030;SDS011;7090;49.436;8.490;2024-01-30T12:25:09;7.13;;;6.63;;
14030;SDS011;7090;49.436;8.490;2024-01-30T12:27:39;9.97;;;8.33;;
14030;SDS011;7090;49.436;8.490;2024-01-30T12:30:07;8.90;;;8.20;;
14030;SDS011;7090;49.436;8.490;2024-01-30T12:32:37;10.30;;;9.40;;
14030;SDS011;7090;49.436;8.490;2024-01-30T12:35:13;10.90;;;9.83;;
14030;SDS011;7090;49.436;8.490;2024-01-30T12:37:40;9.70;;;8.97;;
14030;SDS011;7090;49.436;8.490;2024-01-30T12:40:09;9.00;;;8.20;;
14030;SDS011;7090;49.436;8.490;2024-01-30T12:42:46;8.50;;;7.87;;
14030;SDS011;7090;49.436;8.490;2024-01-30T12:45:13;9.90;;;8.40;;
14030;SDS011;7090;49.436;8.490;2024-01-30T12:47:40;9.20;;;8.50;;
14030;SDS011;7090;49.436;8.490;2024-01-30T12:50:06;21.87;;;8.90;;
14030;SDS011;7090;49.436;8.490;2024-01-30T12:52:32;14.53;;;9.83;;
14030;SDS011;7090;49.436;8.490;2024-01-30T12:54:58;7.30;;;6.90;;
14030;SDS011;7090;49.436;8.490;2024-01-30T12:57:23;13.05;;;9.32;;
14030;SDS011;7090;49.436;8.490;2024-01-30T12:59:49;9.47;;;8.77;;
14030;SDS011;7090;49.436;8.490;2024-01-30T13:02:15;10.30;;;8.67;;
14030;SDS011;7090;49.436;8.490;2024-01-30T13:04:41;9.97;;;9.03;;
14030;SDS011;7090;49.436;8.490;2024-01-30T13:07:07;8.23;;;7.63;;
14030;SDS011;7090;49.436;8.490;2024-01-30T13:09:32;9.13;;;8.27;;
14030;SDS011;7090;49.436;8.490;2024-01-30T13:11:58;8.47;;;7.83;;
14030;SDS011;7090;49.436;8.490;2024-01-30T13:14:25;8.30;;;7.53;;
14030;SDS011;7090;49.436;8.490;2024-01-30T13:16:50;7.27;;;6.83;;
14030;SDS011;7090;49.436;8.490;2024-01-30T13:19:16;7.70;;;7.22;;
14030;SDS011;7090;49.436;8.490;2024-01-30T13:21:42;8.97;;;8.27;;
14030;SDS011;7090;49.436;8.490;2024-01-30T13:24:08;12.50;;;9.43;;
14030;SDS011;7090;49.436;8.490;2024-01-30T13:26:34;4.77;;;4.67;;
14030;SDS011;7090;49.436;8.490;2024-01-30T13:29:00;9.00;;;8.20;;
14030;SDS011;7090;49.436;8.490;2024-01-30T13:31:26;7.70;;;7.00;;
14030;SDS011;7090;49.436;8.490;2024-01-30T13:33:52;19.60;;;8.70;;
14030;SDS011;7090;49.436;8.490;2024-01-30T13:36:18;8.27;;;7.57;;
14030;SDS011;7090;49.436;8.490;2024-01-30T13:38:44;10.03;;;9.03;;
14030;SDS011;7090;49.436;8.490;2024-01-30T13:41:09;8.37;;;7.57;;
14030;SDS011;7090;49.436;8.490;2024-01-30T13:43:35;8.27;;;7.67;;
14030;SDS011;7090;49.436;8.490;2024-01-30T13:46:00;8.37;;;7.77;;
14030;SDS011;7090;49.436;8.490;2024-01-30T13:48:26;9.52;;;8.73;;
14030;SDS011;7090;49.436;8.490;2024-01-30T13:50:52;8.97;;;8.20;;
14030;SDS011;7090;49.436;8.490;2024-01-30T13:53:18;10.40;;;6.93;;
14030;SDS011;7090;49.436;8.490;2024-01-30T13:55:44;7.50;;;6.90;;
14030;SDS011;7090;49.436;8.490;2024-01-30T13:58:10;7.27;;;6.87;;
14030;SDS011;7090;49.436;8.490;2024-01-30T14:00:35;9.30;;;8.33;;
14030;SDS011;7090;49.436;8.490;2024-01-30T14:03:01;6.17;;;5.93;;
14030;SDS011;7090;49.436;8.490;2024-01-30T14:05:27;6.53;;;6.23;;
14030;SDS011;7090;49.436;8.490;2024-01-30T14:07:53;7.17;;;6.77;;
14030;SDS011;7090;49.436;8.490;2024-01-30T14:10:22;11.10;;;9.07;;
14030;SDS011;7090;49.436;8.490;2024-01-30T14:12:48;9.33;;;8.53;;
14030;SDS011;7090;49.436;8.490;2024-01-30T14:15:14;10.00;;;9.07;;
14030;SDS011;7090;49.436;8.490;2024-01-30T14:17:40;9.23;;;8.57;;
14030;SDS011;7090;49.436;8.490;2024-01-30T14:20:06;7.90;;;7.40;;
14030;SDS011;7090;49.436;8.490;2024-01-30T14:22:35;9.43;;;8.70;;
14030;SDS011;7090;49.436;8.490;2024-01-30T14:25:01;6.93;;;6.63;;
14030;SDS011;7090;49.436;8.490;2024-01-30T14:27:28;8.33;;;7.50;;
14030;SDS011;7090;49.436;8.490;2024-01-30T14:29:57;8.63;;;7.83;;
14030;SDS011;7090;49.436;8.490;2024-01-30T14:32:23;7.53;;;6.90;;
14030;SDS011;7090;49.436;8.490;2024-01-30T14:34:50;7.30;;;6.80;;
14030;SDS011;7090;49.436;8.490;2024-01-30T14:37:17;8.90;;;8.07;;
14030;SDS011;7090;49.436;8.490;2024-01-30T14:39:43;9.07;;;8.27;;
14030;SDS011;7090;49.436;8.490;2024-01-30T14:42:08;6.83;;;6.47;;
14030;SDS011;7090;49.436;8.490;2024-01-30T14:44:34;9.77;;;8.83;;